.
WxDataArchive / Data Records for 2015-04-17
2015-04-16 April 2015 2015-04-18

Data Records for Friday, 17 April 2015

Time	Temp	Chill	HIndex	Humid	Dewpt	 Wind 	HiWind	WindDir	Rain 	Barom
-----	----	-----	------	-----	-----	------	------	-------	-----	-----
00:00	57.8	57.8	57.8	87	54.0	0	0	---	0.00	30.049 
00:05	57.6	57.6	57.6	88	54.1	0	1	202	0.00	30.049 
00:10	57.6	57.6	57.6	88	54.1	0	1	202	0.00	30.049 
00:15	57.5	57.5	57.5	88	54.0	0	2	202	0.00	30.050 
00:20	57.5	57.5	57.5	88	54.0	0	1	202	0.00	30.050 
00:25	57.3	57.3	57.3	88	53.8	0	1	202	0.00	30.050 
00:30	57.2	57.2	57.2	88	53.7	0	1	202	0.00	30.047 
00:35	57.0	57.0	57.0	88	53.5	0	0	---	0.00	30.047 
00:40	56.9	56.9	56.9	88	53.4	0	1	202	0.00	30.047 
00:45	56.7	56.7	56.7	89	53.5	0	1	202	0.00	30.053 
00:50	56.6	56.6	56.6	89	53.4	0	0	---	0.00	30.053 
00:55	56.6	56.6	56.6	89	53.4	0	1	202	0.00	30.053 
01:00	56.6	56.6	56.6	89	53.4	0	1	202	0.00	30.048 
01:05	56.5	56.5	56.5	89	53.3	0	0	---	0.00	30.048 
01:10	56.3	56.3	56.3	89	53.1	0	1	202	0.00	30.048 
01:15	56.3	56.3	56.3	89	53.1	0	1	202	0.00	30.043 
01:20	56.0	56.0	56.0	90	53.1	0	1	202	0.00	30.043 
01:25	55.9	55.9	55.9	90	53.0	0	0	---	0.00	30.043 
01:30	55.7	55.7	55.7	89	52.5	0	0	---	0.00	30.041 
01:35	55.4	55.4	55.4	89	52.2	0	1	202	0.00	30.041 
01:40	55.3	55.3	55.3	89	52.1	0	1	202	0.00	30.041 
01:45	55.0	55.0	55.0	88	51.5	0	1	202	0.00	30.039 
01:50	54.7	54.7	54.7	88	51.2	0	0	---	0.00	30.039 
01:55	54.5	54.5	54.5	87	50.7	0	2	202	0.00	30.039 
02:00	54.4	54.4	54.4	86	50.3	0	1	202	0.00	30.037 
02:05	54.2	54.2	54.2	85	49.8	0	1	202	0.00	30.037 
02:10	54.1	54.1	54.1	84	49.4	0	1	202	0.00	30.037 
02:15	54.1	54.1	54.1	83	49.1	0	1	202	0.00	30.027 
02:20	53.9	53.9	53.9	83	48.9	0	0	---	0.00	30.027 
02:25	53.8	53.8	53.8	82	48.4	0	0	---	0.00	30.027 
02:30	53.6	53.6	53.6	82	48.2	0	0	---	0.00	30.031 
02:35	53.5	53.5	53.5	82	48.1	0	1	202	0.00	30.031 
02:40	53.3	53.3	53.3	81	47.6	0	0	---	0.00	30.031 
02:45	53.3	53.3	53.3	81	47.6	0	0	---	0.00	30.043 
02:50	53.3	53.3	53.3	81	47.6	0	0	---	0.00	30.043 
02:55	53.5	53.5	53.5	81	47.8	0	2	202	0.00	30.043 
03:00	53.6	53.6	53.6	80	47.6	0	1	202	0.00	30.045 
03:05	53.6	53.6	53.6	80	47.6	0	0	---	0.00	30.045 
03:10	53.6	53.6	53.6	79	47.2	0	1	202	0.00	30.045 
03:15	53.8	53.8	53.8	79	47.4	0	1	202	0.00	30.047 
03:20	53.8	53.8	53.8	79	47.4	0	3	202	0.00	30.047 
03:25	53.8	53.8	53.8	78	47.1	0	2	202	0.00	30.047 
03:30	53.8	53.8	53.8	78	47.1	0	1	202	0.00	30.046 
03:35	53.5	53.5	53.5	78	46.8	0	2	202	0.00	30.046 
03:40	53.3	53.3	53.3	78	46.6	0	1	202	0.00	30.046 
03:45	53.1	53.1	53.1	78	46.4	0	1	202	0.00	30.043 
03:50	52.8	52.8	52.8	79	46.5	0	1	202	0.00	30.043 
03:55	52.5	52.5	52.5	79	46.2	0	1	202	0.00	30.043 
04:00	52.2	52.2	52.2	79	45.9	0	0	---	0.00	30.042 
04:05	52.0	52.0	52.0	80	46.0	0	0	---	0.00	30.042 
04:10	51.7	51.7	51.7	80	45.7	0	1	202	0.00	30.042 
04:15	51.4	51.4	51.4	80	45.4	0	0	---	0.00	30.041 
04:20	51.1	51.1	51.1	81	45.5	0	0	---	0.00	30.041 
04:25	51.0	51.0	51.0	81	45.4	0	0	---	0.00	30.041 
04:30	50.5	50.5	50.5	81	44.9	0	0	---	0.00	30.041 
04:35	50.2	50.2	50.2	81	44.6	0	0	---	0.00	30.041 
04:40	49.8	49.8	49.8	82	44.5	0	0	---	0.00	30.041 
04:45	49.5	49.5	49.5	82	44.2	0	0	---	0.00	30.046 
04:50	49.2	49.2	49.2	83	44.3	0	0	---	0.00	30.046 
04:55	48.8	48.8	48.8	84	44.2	0	0	---	0.00	30.046 
05:00	48.5	48.5	48.5	84	43.9	0	0	---	0.00	30.058 
05:05	48.2	48.2	48.2	84	43.6	0	0	---	0.00	30.058 
05:10	47.7	47.7	47.7	84	43.1	0	0	---	0.00	30.058 
05:15	47.4	47.4	47.4	84	42.8	0	0	---	0.00	30.060 
05:20	47.1	47.1	47.1	85	42.8	0	0	---	0.00	30.060 
05:25	47.0	47.0	47.0	86	43.0	0	0	---	0.00	30.060 
05:30	47.0	47.0	47.0	87	43.3	0	0	---	0.00	30.062 
05:35	46.8	46.8	46.8	87	43.1	0	0	---	0.00	30.062 
05:40	46.7	46.7	46.7	87	43.0	0	0	---	0.00	30.062 
05:45	46.4	46.4	46.4	87	42.7	0	0	---	0.00	30.064 
05:50	46.4	46.4	46.4	88	43.0	0	0	---	0.00	30.064 
05:55	46.4	46.4	46.4	88	43.0	0	0	---	0.00	30.064 
06:00	46.5	46.5	46.5	89	43.4	0	0	---	0.00	30.061 
06:05	46.4	46.4	46.4	88	43.0	0	0	---	0.00	30.061 
06:10	46.1	46.1	46.1	88	42.7	0	0	---	0.00	30.061 
06:15	45.7	45.7	45.7	88	42.4	0	0	---	0.00	30.062 
06:20	45.4	45.4	45.4	89	42.3	0	0	---	0.00	30.062 
06:25	45.1	45.1	45.1	89	42.1	0	0	---	0.00	30.062 
06:30	44.9	44.9	44.9	89	41.9	0	0	---	0.00	30.063 
06:35	44.6	44.6	44.6	89	41.6	0	0	---	0.00	30.063 
06:40	44.5	44.5	44.5	89	41.5	0	0	---	0.00	30.063 
06:45	44.3	44.3	44.3	89	41.3	0	0	---	0.00	30.061 
06:50	44.1	44.1	44.1	89	41.1	0	0	---	0.00	30.061 
06:55	44.1	44.1	44.1	90	41.4	0	0	---	0.00	30.061 
07:00	43.9	43.9	43.9	90	41.2	0	0	---	0.00	30.062 
07:05	43.8	43.8	43.8	90	41.1	0	0	---	0.00	30.062 
07:10	43.6	43.6	43.6	90	40.9	0	0	---	0.00	30.062 
07:15	43.5	43.5	43.5	90	40.8	0	0	---	0.00	30.061 
07:20	43.5	43.5	43.5	91	41.0	0	0	---	0.00	30.061 
07:25	43.6	43.6	43.6	91	41.1	0	0	---	0.00	30.061 
07:30	43.8	43.8	43.8	91	41.3	0	0	---	0.00	30.062 
07:35	43.8	43.8	43.8	91	41.3	0	0	---	0.00	30.062 
07:40	43.9	43.9	43.9	92	41.7	0	0	---	0.00	30.062 
07:45	44.2	44.2	44.2	92	42.0	0	0	---	0.00	30.065 
07:50	45.1	45.1	45.1	93	43.2	0	0	---	0.00	30.065 
07:55	45.8	45.8	45.8	93	43.9	0	0	---	0.00	30.065 
08:00	46.7	46.7	46.7	93	44.8	0	0	---	0.00	30.073 
08:05	47.3	47.3	47.3	92	45.1	0	1	180	0.00	30.073 
08:10	47.9	47.9	47.9	92	45.7	0	0	---	0.00	30.073 
08:15	48.5	48.5	48.5	92	46.3	0	0	---	0.00	30.075 
08:20	49.1	49.1	49.1	91	46.6	0	1	180	0.00	30.075 
08:25	49.6	49.6	49.6	90	46.8	0	0	---	0.00	30.075 
08:30	50.4	50.4	50.4	89	47.3	0	0	---	0.00	30.072 
08:35	51.0	51.0	51.0	88	47.6	0	0	---	0.00	30.072 
08:40	51.7	51.7	51.7	85	47.3	0	1	180	0.00	30.072 
08:45	52.3	52.3	52.3	83	47.3	0	0	---	0.00	30.077 
08:50	52.9	52.9	52.9	80	46.9	0	1	180	0.00	30.077 
08:55	53.3	53.3	53.3	78	46.6	0	1	180	0.00	30.077 
09:00	53.9	53.9	53.9	77	46.9	0	1	180	0.00	30.088 
09:05	54.4	54.4	54.4	74	46.3	0	1	180	0.00	30.088 
09:10	54.8	54.8	54.8	73	46.3	0	1	180	0.00	30.088 
09:15	55.3	55.3	55.3	72	46.4	0	1	180	0.00	30.087 
09:20	55.9	55.9	55.9	72	47.0	0	2	180	0.00	30.087 
09:25	56.5	56.5	56.5	70	46.8	0	1	315	0.00	30.087 
09:30	57.0	57.0	57.0	69	46.9	0	1	270	0.00	30.088 
09:35	57.6	57.6	57.6	65	45.9	0	3	270	0.00	30.088 
09:40	58.4	58.4	58.4	65	46.7	0	1	270	0.00	30.088 
09:45	58.9	58.9	58.9	63	46.3	1	2	270	0.00	30.083 
09:50	59.3	59.3	59.3	62	46.3	1	4	270	0.00	30.083 
09:55	59.8	59.8	59.8	62	46.8	1	4	270	0.00	30.083 
10:00	60.2	60.2	60.2	62	47.1	1	4	270	0.00	30.086 
10:05	60.7	60.7	60.7	62	47.6	1	5	270	0.00	30.086 
10:10	61.3	61.3	61.3	60	47.3	0	2	292	0.00	30.086 
10:15	61.8	61.8	61.8	61	48.2	1	5	315	0.00	30.085 
10:20	62.1	62.1	62.1	59	47.6	1	2	315	0.00	30.085 
10:25	62.6	62.6	62.6	57	47.1	1	5	315	0.00	30.085 
10:30	62.9	62.9	62.9	58	47.9	1	3	315	0.00	30.083 
10:35	63.4	63.4	63.4	57	47.9	1	3	315	0.00	30.083 
10:40	63.9	63.9	63.9	55	47.4	1	2	315	0.00	30.083 
10:45	64.2	64.2	64.2	55	47.7	0	1	315	0.00	30.083 
10:50	64.5	64.5	64.5	54	47.5	1	2	315	0.00	30.083 
10:55	64.7	64.7	64.7	51	46.1	1	2	315	0.00	30.083 
11:00	64.8	64.8	64.8	54	47.8	1	3	315	0.00	30.079 
11:05	65.2	65.2	65.2	51	46.6	1	4	315	0.00	30.079 
11:10	65.5	65.5	65.5	51	46.9	1	3	315	0.00	30.079 
11:15	66.0	66.0	66.0	54	48.9	0	1	315	0.00	30.076 
11:20	66.4	66.4	66.4	53	48.7	1	3	315	0.00	30.076 
11:25	66.9	66.9	66.9	50	47.6	0	3	292	0.00	30.076 
11:30	67.4	67.4	67.4	48	47.0	1	3	292	0.00	30.074 
11:35	67.8	67.8	67.8	49	47.9	0	1	292	0.00	30.074 
11:40	67.9	67.9	67.9	49	48.0	0	2	292	0.00	30.074 
11:45	68.3	68.3	68.3	48	47.8	0	2	292	0.00	30.071 
11:50	68.4	68.4	68.4	44	45.6	0	2	292	0.00	30.071 
11:55	68.6	68.6	68.6	41	44.0	0	2	292	0.00	30.071 
12:00	69.3	69.3	69.3	45	47.0	0	1	292	0.00	30.068 
12:05	69.6	69.6	69.6	43	46.1	1	5	90	0.00	30.068 
12:10	69.8	69.8	69.8	41	45.0	1	3	338	0.00	30.068 
12:15	70.3	70.3	70.3	41	45.5	1	3	338	0.00	30.065 
12:20	70.8	70.8	70.8	39	44.6	0	2	338	0.00	30.065 
12:25	70.8	70.8	70.8	39	44.6	1	3	338	0.00	30.065 
12:30	70.9	70.9	70.9	37	43.3	1	2	338	0.00	30.058 
12:35	70.9	70.9	70.9	38	44.0	1	3	338	0.00	30.058 
12:40	71.3	71.3	71.3	39	45.1	0	1	338	0.00	30.058 
12:45	71.8	71.8	71.8	36	43.4	0	3	0	0.00	30.049 
12:50	72.3	72.3	72.3	38	45.3	1	4	68	0.00	30.049 
12:55	72.3	72.3	72.3	33	41.6	1	4	68	0.00	30.049 
13:00	72.0	72.0	72.0	35	42.8	0	3	45	0.00	30.047 
13:05	71.8	71.8	71.8	34	41.9	0	3	45	0.00	30.047 
13:10	72.1	72.1	72.1	35	42.9	0	2	45	0.00	30.047 
13:15	72.5	72.5	72.5	35	43.3	0	2	45	0.00	30.048 
13:20	72.7	72.7	72.7	42	48.3	1	3	45	0.00	30.048 
13:25	72.8	72.8	72.8	38	45.7	0	2	45	0.00	30.048 
13:30	73.2	73.2	73.2	33	42.4	1	5	270	0.00	30.046 
13:35	73.3	73.3	73.3	32	41.6	0	2	270	0.00	30.046 
13:40	73.5	73.5	73.5	31	41.0	0	3	270	0.00	30.046 
13:45	73.5	73.5	73.5	29	39.3	0	3	270	0.00	30.040 
13:50	73.9	73.9	73.9	30	40.5	0	1	270	0.00	30.040 
13:55	74.0	74.0	74.0	31	41.4	1	3	270	0.00	30.040 
14:00	73.9	73.9	73.9	27	37.8	1	3	270	0.00	30.031 
14:05	73.7	73.7	73.7	31	41.2	1	5	270	0.00	30.031 
14:10	73.5	73.5	73.5	31	41.0	0	3	90	0.00	30.031 
14:15	73.9	73.9	73.9	28	38.7	0	3	112	0.00	30.027 
14:20	74.2	74.2	74.2	32	42.4	0	2	112	0.00	30.027 
14:25	74.4	74.4	74.4	33	43.4	0	2	112	0.00	30.027 
14:30	74.9	74.9	74.9	30	41.4	0	1	112	0.00	30.018 
14:35	75.3	75.3	77.0	30	41.7	1	4	112	0.00	30.018 
14:40	75.3	75.3	76.9	28	39.9	1	3	112	0.00	30.018 
14:45	75.8	75.8	77.1	28	40.4	1	3	270	0.00	30.010 
14:50	76.1	76.1	77.3	30	42.4	0	4	270	0.00	30.010 
14:55	76.3	76.3	77.2	28	40.8	1	5	248	0.00	30.010 
15:00	76.1	76.1	77.0	26	38.7	1	3	248	0.00	30.002 
15:05	76.0	76.0	77.1	28	40.5	0	2	248	0.00	30.002 
15:10	76.5	76.5	77.3	27	40.0	1	3	248	0.00	30.002 
15:15	76.5	76.5	77.3	28	41.0	0	2	248	0.00	30.000 
15:20	76.8	76.8	77.8	34	46.3	0	1	248	0.00	30.000 
15:25	77.0	77.0	77.5	28	41.4	0	2	248	0.00	30.000 
15:30	76.8	76.8	77.5	28	41.2	1	3	248	0.00	29.998 
15:35	76.1	76.1	77.2	29	41.5	1	5	112	0.00	29.998 
15:40	76.3	76.3	77.2	28	40.8	0	2	112	0.00	29.998 
15:45	76.7	76.7	77.3	27	40.2	0	2	112	0.00	29.993 
15:50	76.8	76.8	77.4	27	40.3	0	2	112	0.00	29.993 
15:55	76.8	76.8	77.5	28	41.2	0	1	112	0.00	29.993 
16:00	76.8	76.8	77.3	26	39.3	1	3	292	0.00	29.989 
16:05	76.3	76.3	77.0	25	37.9	1	4	315	0.00	29.989 
16:10	76.0	76.0	76.9	25	37.6	1	3	315	0.00	29.989 
16:15	75.8	75.8	77.1	28	40.4	1	3	0	0.00	29.986 
16:20	75.6	75.6	76.8	26	38.3	0	1	0	0.00	29.986 
16:25	75.8	75.8	77.0	27	39.4	0	3	0	0.00	29.986 
16:30	76.0	76.0	77.0	26	38.6	0	2	0	0.00	29.983 
16:35	76.3	76.3	77.3	29	41.7	0	2	0	0.00	29.983 
16:40	76.3	76.3	77.0	25	37.9	1	3	0	0.00	29.983 
16:45	76.0	76.0	76.9	25	37.6	1	3	292	0.00	29.981 
16:50	75.8	75.8	76.9	26	38.5	1	4	292	0.00	29.981 
16:55	75.8	75.8	76.9	26	38.5	1	4	292	0.00	29.981 
17:00	76.0	76.0	77.1	28	40.5	0	2	292	0.00	29.975 
17:05	76.5	76.5	77.3	28	41.0	0	2	292	0.00	29.975 
17:10	76.8	76.8	77.3	26	39.3	0	2	292	0.00	29.975 
17:15	76.8	76.8	77.4	27	40.3	1	4	292	0.00	29.975 
17:20	77.0	77.0	77.5	27	40.4	1	3	270	0.00	29.975 
17:25	77.2	77.2	77.6	27	40.6	1	3	270	0.00	29.975 
17:30	77.2	77.2	77.4	25	38.6	1	3	270	0.00	29.976 
17:35	76.8	76.8	77.2	25	38.3	0	2	270	0.00	29.976 
17:40	76.3	76.3	77.2	28	40.8	1	3	270	0.00	29.976 
17:45	76.3	76.3	77.2	28	40.8	1	6	270	0.00	29.976 
17:50	76.7	76.7	77.4	28	41.1	1	3	292	0.00	29.976 
17:55	76.7	76.7	77.4	28	41.1	1	3	292	0.00	29.976 
18:00	76.5	76.5	77.2	26	39.0	2	6	292	0.00	29.974 
18:05	76.1	76.1	77.2	28	40.6	1	4	315	0.00	29.974 
18:10	76.0	76.0	77.1	27	39.6	1	3	292	0.00	29.974 
18:15	75.8	75.8	77.0	27	39.4	1	4	270	0.00	29.981 
18:20	75.6	75.6	77.0	28	40.2	1	2	270	0.00	29.981 
18:25	75.8	75.8	77.0	27	39.4	0	1	270	0.00	29.981 
18:30	75.8	75.8	77.0	27	39.4	0	2	270	0.00	29.982 
18:35	75.6	75.6	76.9	27	39.2	0	3	270	0.00	29.982 
18:40	75.4	75.4	77.0	29	40.9	1	3	270	0.00	29.982 
18:45	74.9	74.9	74.9	29	40.5	1	3	270	0.00	29.980 
18:50	74.6	74.6	74.6	30	41.1	0	1	270	0.00	29.980 
18:55	74.2	74.2	74.2	31	41.6	0	1	270	0.00	29.980 
19:00	73.9	73.9	73.9	30	40.5	0	1	270	0.00	29.977 
19:05	73.7	73.7	73.7	32	42.0	0	0	---	0.00	29.977 
19:10	73.5	73.5	73.5	31	41.0	0	0	---	0.00	29.977 
19:15	73.3	73.3	73.3	31	40.8	0	1	270	0.00	29.975 
19:20	73.5	73.5	73.5	30	40.2	0	2	270	0.00	29.975 
19:25	73.5	73.5	73.5	30	40.2	0	2	270	0.00	29.975 
19:30	73.5	73.5	73.5	30	40.2	0	1	270	0.00	29.975 
19:35	73.3	73.3	73.3	30	40.0	0	3	292	0.00	29.975 
19:40	73.3	73.3	73.3	31	40.8	0	1	292	0.00	29.975 
19:45	73.0	73.0	73.0	31	40.6	0	1	292	0.00	29.974 
19:50	72.7	72.7	72.7	31	40.3	0	1	292	0.00	29.974 
19:55	72.3	72.3	72.3	32	40.8	0	0	---	0.00	29.974 
20:00	72.1	72.1	72.1	32	40.6	0	1	292	0.00	29.981 
20:05	71.8	71.8	71.8	33	41.1	0	0	---	0.00	29.981 
20:10	71.5	71.5	71.5	34	41.6	0	0	---	0.00	29.981 
20:15	70.9	70.9	70.9	36	42.6	0	0	---	0.00	29.983 
20:20	70.4	70.4	70.4	36	42.2	0	0	---	0.00	29.983 
20:25	69.9	69.9	69.9	37	42.4	0	0	---	0.00	29.983 
20:30	69.4	69.4	69.4	38	42.7	0	0	---	0.00	29.987 
20:35	68.9	68.9	68.9	39	42.9	0	0	---	0.00	29.987 
20:40	68.4	68.4	68.4	40	43.1	0	0	---	0.00	29.987 
20:45	67.9	67.9	67.9	40	42.7	0	0	---	0.00	29.988 
20:50	67.6	67.6	67.6	41	43.1	0	0	---	0.00	29.988 
20:55	67.1	67.1	67.1	42	43.2	0	0	---	0.00	29.988 
21:00	66.8	66.8	66.8	42	43.0	0	0	---	0.00	29.991 
21:05	66.4	66.4	66.4	43	43.2	0	0	---	0.00	29.991 
21:10	66.3	66.3	66.3	43	43.1	0	0	---	0.00	29.991 
21:15	66.1	66.1	66.1	44	43.5	0	0	---	0.00	29.993 
21:20	66.0	66.0	66.0	45	44.0	0	0	---	0.00	29.993 
21:25	65.6	65.6	65.6	46	44.3	0	0	---	0.00	29.993 
21:30	65.5	65.5	65.5	46	44.2	0	0	---	0.00	29.995 
21:35	65.0	65.0	65.0	46	43.7	0	0	---	0.00	29.995 
21:40	64.7	64.7	64.7	48	44.6	0	0	---	0.00	29.995 
21:45	64.3	64.3	64.3	48	44.2	0	0	---	0.00	30.000 
21:50	64.0	64.0	64.0	50	45.0	0	0	---	0.00	30.000 
21:55	63.7	63.7	63.7	52	45.7	0	0	---	0.00	30.000 
22:00	63.4	63.4	63.4	52	45.5	0	0	---	0.00	30.004 
22:05	63.1	63.1	63.1	53	45.7	0	0	---	0.00	30.004 
22:10	62.7	62.7	62.7	54	45.8	0	0	---	0.00	30.004 
22:15	62.6	62.6	62.6	55	46.2	0	0	---	0.00	30.002 
22:20	62.4	62.4	62.4	56	46.5	0	0	---	0.00	30.002 
22:25	62.3	62.3	62.3	56	46.4	0	0	---	0.00	30.002 
22:30	62.3	62.3	62.3	56	46.4	0	0	---	0.00	30.002 
22:35	62.1	62.1	62.1	55	45.7	0	0	---	0.00	30.002 
22:40	62.0	62.0	62.0	57	46.6	0	0	---	0.00	30.002 
22:45	61.8	61.8	61.8	57	46.4	0	0	---	0.00	29.999 
22:50	61.6	61.6	61.6	57	46.2	0	0	---	0.00	29.999 
22:55	61.3	61.3	61.3	56	45.5	0	0	---	0.00	29.999 
23:00	61.0	61.0	61.0	56	45.2	0	0	---	0.00	29.993 
23:05	60.7	60.7	60.7	58	45.8	0	0	---	0.00	29.993 
23:10	60.4	60.4	60.4	59	46.0	0	0	---	0.00	29.993 
23:15	59.9	59.9	59.9	59	45.5	0	0	---	0.00	29.987 
23:20	59.5	59.5	59.5	59	45.2	0	0	---	0.00	29.987 
23:25	59.2	59.2	59.2	62	46.2	0	0	---	0.00	29.987 
23:30	58.9	58.9	58.9	62	45.9	0	0	---	0.00	29.987 
23:35	58.6	58.6	58.6	62	45.6	0	0	---	0.00	29.987 
23:40	58.3	58.3	58.3	62	45.3	0	0	---	0.00	29.987 
23:45	58.0	58.0	58.0	64	45.9	0	0	---	0.00	29.994 
23:50	57.6	57.6	57.6	64	45.5	0	0	---	0.00	29.994 
23:55	57.5	57.5	57.5	65	45.8	0	0	---	0.00	29.994 

CoCoRaHS
IN-AL-39
A2 Web Hosting
Creative Commons License
GoDaddy
search engine by freefind advanced

loaded 2018-11-17 23:06:16 • last modified 2010-11-18 10:43:29
Privacy PolicyDisclaimer
• wx.awcolley.com is powered by PmWiki v.2002016 •
• all content (unless otherwise noted) © 2018 A W Colley